Hestrud (Nord, France) - 208 m
Donnes mto: Actuelle samedi, 24/09/2022 17:12
Date Horaire Temp Out Serre Temp. E. min Temp. E. max Temp. Sol 1 Hum Out Hum. Sol 1 Press Rain Wind Dir Dir Solar Ev.Tr. UV Hi Solar Rad Dew Point Windchill Wind (Gust)
24/09/2022 17:12 14,7 C 0,0 C 14,7 C 14,7 C 14,4 C 87 % 200 cb 1012,2 hPa 0,0 mm 8,0 km/h (2 Bft) N-NO 337 7 min 0,051 mm 0,0 UV-I 62 W/m 12,6 C 13,8 C 14,5 km/h (3 Bft)
24/09/2022 16:12 15,6 C 0,0 C 15,6 C 15,6 C 16,1 C 79 % 200 cb 1012,0 hPa 0,0 mm 3,2 km/h (1 Bft) O 270 47 min 0,102 mm 0,9 UV-I 174 W/m 12,0 C 15,6 C 6,4 km/h (2 Bft)
24/09/2022 15:12 15,6 C 0,0 C 15,6 C 15,6 C 15,6 C 78 % 200 cb 1012,1 hPa 0,0 mm 6,4 km/h (2 Bft) O-SO 247 39 min 0,127 mm 0,9 UV-I 139 W/m 11,8 C 15,6 C 9,7 km/h (2 Bft)
24/09/2022 14:12 15,4 C 0,0 C 15,4 C 15,4 C 16,1 C 80 % 200 cb 1012,3 hPa 0,0 mm 8,0 km/h (2 Bft) O 270 60 min 0,127 mm 1,0 UV-I 172 W/m 12,0 C 14,5 C 11,3 km/h (2 Bft)
24/09/2022 13:12 15,0 C 0,0 C 15,0 C 15,0 C 16,1 C 82 % 200 cb 1012,4 hPa 0,0 mm 3,2 km/h (1 Bft) S 180 60 min 0,127 mm 1,3 UV-I 227 W/m 12,0 C 15,0 C 3,2 km/h (1 Bft)
24/09/2022 12:12 13,9 C 0,0 C 13,9 C 13,9 C 15,6 C 92 % 200 cb 1012,5 hPa 0,0 mm 3,2 km/h (1 Bft) SO 225 60 min 0,102 mm 1,5 UV-I 260 W/m 12,6 C 13,9 C 8,0 km/h (2 Bft)
24/09/2022 11:12 12,2 C 0,0 C 12,2 C 12,2 C 13,3 C 98 % 200 cb 1012,7 hPa 0,0 mm 0,0 km/h (0 Bft) N 0 32 min 0,051 mm 1,0 UV-I 251 W/m 11,9 C 12,2 C 0,0 km/h (0 Bft)
24/09/2022 10:12 10,4 C 0,0 C 10,4 C 10,5 C 11,1 C 97 % 200 cb 1012,8 hPa 0,0 mm 0,0 km/h (0 Bft) N 0 0 min 0,025 mm 0,0 UV-I 67 W/m 9,9 C 10,4 C 0,0 km/h (0 Bft)
24/09/2022 09:12 9,9 C 0,0 C 9,8 C 9,9 C 10,6 C 97 % 200 cb 1012,5 hPa 0,2 mm 0,0 km/h (0 Bft) N 0 0 min 0,000 mm 0,0 UV-I 33 W/m 9,4 C 9,9 C 0,0 km/h (0 Bft)
24/09/2022 08:12 9,4 C 0,0 C 9,4 C 9,4 C 10,0 C 96 % 200 cb 1012,3 hPa 0,0 mm 0,0 km/h (0 Bft) N 0 0 min 0,000 mm 0,0 UV-I 9 W/m 8,8 C 9,4 C 0,0 km/h (0 Bft)
24/09/2022 07:12 9,2 C 0,0 C 9,2 C 9,2 C 9,4 C 96 % 200 cb 1012,0 hPa 0,0 mm 0,0 km/h (0 Bft) N 0 0 min 0,000 mm 0,0 UV-I 0 W/m 8,6 C 9,2 C 0,0 km/h (0 Bft)
24/09/2022 06:12 9,1 C 0,0 C 9,1 C 9,1 C 9,4 C 95 % 200 cb 1012,3 hPa 0,0 mm 0,0 km/h (0 Bft) N 0 0 min 0,000 mm 0,0 UV-I 0 W/m 8,3 C 9,1 C 0,0 km/h (0 Bft)
24/09/2022 05:12 9,2 C 0,0 C 9,2 C 9,2 C 8,9 C 95 % 200 cb 1012,5 hPa 0,0 mm 0,0 km/h (0 Bft) N 0 0 min 0,000 mm 0,0 UV-I 0 W/m 8,4 C 9,2 C 0,0 km/h (0 Bft)
24/09/2022 04:12 9,4 C 0,0 C 9,4 C 9,4 C 9,4 C 95 % 200 cb 1012,9 hPa 0,0 mm 0,0 km/h (0 Bft) N 0 0 min 0,000 mm 0,0 UV-I 0 W/m 8,6 C 9,4 C 0,0 km/h (0 Bft)
24/09/2022 03:12 9,4 C 0,0 C 9,4 C 9,4 C 9,4 C 94 % 200 cb 1013,5 hPa 0,0 mm 0,0 km/h (0 Bft) N 0 0 min 0,000 mm 0,0 UV-I 0 W/m 8,5 C 9,4 C 0,0 km/h (0 Bft)
24/09/2022 02:12 9,8 C 0,0 C 9,8 C 9,8 C 10,0 C 94 % 200 cb 1013,9 hPa 0,0 mm 0,0 km/h (0 Bft) N 0 0 min 0,000 mm 0,0 UV-I 0 W/m 8,9 C 9,8 C 0,0 km/h (0 Bft)
24/09/2022 01:12 10,1 C 0,0 C 10,1 C 10,1 C 10,0 C 93 % 200 cb 1014,1 hPa 0,0 mm 0,0 km/h (0 Bft) N 0 0 min 0,000 mm 0,0 UV-I 0 W/m 9,0 C 10,1 C 0,0 km/h (0 Bft)
24/09/2022 00:12 10,6 C 0,0 C 10,6 C 10,6 C 10,6 C 92 % 200 cb 1014,3 hPa 0,0 mm 0,0 km/h (0 Bft) N 0 0 min 0,000 mm 0,0 UV-I 0 W/m 9,4 C 10,6 C 0,0 km/h (0 Bft)
23/09/2022 23:12 10,9 C 0,0 C 10,9 C 10,9 C 10,6 C 91 % 200 cb 1014,5 hPa 0,0 mm 0,0 km/h (0 Bft) N 0 0 min 0,000 mm 0,0 UV-I 0 W/m 9,5 C 10,9 C 0,0 km/h (0 Bft)
23/09/2022 22:12 11,3 C 0,0 C 11,3 C 11,3 C 11,1 C 89 % 200 cb 1014,7 hPa 0,0 mm 0,0 km/h (0 Bft) N 0 0 min 0,000 mm 0,0 UV-I 0 W/m 9,6 C 11,3 C 0,0 km/h (0 Bft)
23/09/2022 21:12 11,7 C 0,0 C 11,7 C 11,7 C 11,1 C 87 % 200 cb 1015,0 hPa 0,0 mm 0,0 km/h (0 Bft) N 0 0 min 0,025 mm 0,0 UV-I 0 W/m 9,6 C 11,7 C 0,0 km/h (0 Bft)
23/09/2022 20:12 13,2 C 0,0 C 13,2 C 13,2 C 12,2 C 81 % 200 cb 1014,9 hPa 0,0 mm 0,0 km/h (0 Bft) N 0 0 min 0,000 mm 0,0 UV-I 0 W/m 10,0 C 13,2 C 0,0 km/h (0 Bft)
23/09/2022 19:12 14,6 C 0,0 C 14,6 C 14,6 C 13,9 C 75 % 200 cb 1015,1 hPa 0,0 mm 3,2 km/h (1 Bft) SO 225 0 min 0,025 mm 0,0 UV-I 11 W/m 10,2 C 14,6 C 6,4 km/h (2 Bft)
23/09/2022 18:12 15,3 C 0,0 C 15,3 C 15,3 C 15,0 C 72 % 200 cb 1015,2 hPa 0,0 mm 3,2 km/h (1 Bft) SO 225 0 min 0,076 mm 0,0 UV-I 44 W/m 10,3 C 15,3 C 8,0 km/h (2 Bft)
23/09/2022 18:00 15,4 C 0,0 C 15,4 C 15,4 C 15,0 C 71 % 200 cb 1015,3 hPa 0,0 mm 3,2 km/h (1 Bft) SO 225 0 min 0,076 mm 0,0 UV-I 51 W/m 10,2 C 15,4 C 6,4 km/h (2 Bft)
_ Min-Heure 05:32 18:00 05:32 05:33 05:04 18:00 18:00 15:34 - 18:23 - - - - - - 05:32 05:32 18:23
Minimum _ 8,9 C 0,0 C 8,9 C 8,9 C 8,9 C 71 % 200 cb 1011,9 hPa - 0,0 km/h (0 Bft) - - - - - - 8,1 C 8,9 C 0,0 km/h (0 Bft)
_ Max-Heure 14:51 18:00 14:52 14:51 14:41 10:31 18:00 18:00 08:24 13:34 - - 10:41 13:00 12:01 12:01 12:14 14:52 15:24
Maximum _ 16,0 C 0,0 C 16,0 C 16,0 C 16,7 C 98 % 200 cb 1015,3 hPa 0,2 mm 11,3 km/h
SO (2 Bft)
- - 1 min 0,127 mm 1,6 UV-I 313 W/m 12,8 C 16,0 C 16,1 km/h
O-SO (3 Bft)
Moyenne _ 12,1 C 0,0 C 12,1 C 12,1 C 12,2 C 88 % 200 cb 1013,4 hPa #0,2 mm 1,6 km/h (1 Bft) SO - #5:05 h #0,712 mm 1,1 UV-I 74 W/m 10,0 C 12,0 C 2,7 km/h (1 Bft)